Weedsport, New York
Current Conditions -  °F | °C
As of 12:43 PM on Thursday 30 Oct 2014 (Local Time) from KFZY Reporting Station
Overcast Overcast  
Wind Chill: 46°   Ceiling: 2900
Heat Index: 46°   Visibility: 10mi
Dew Point: 36°   Wind: 3mph
Humidity: 68%   Direction: 360°N
Pressure: 30.05"   Gusts: NA
Location:  43.05°N, 76.56°W
Report Text: KFZY 301643Z AUTO 36003KT 10SM BKN029 OVC035 08/02 A3005 RMK AO2 T00780022
Loading
Personal Weather Stations






























Interactive Weather Map
Tropical Storm Tracking
New forecast layout! Learn more

10-Day Weather Forecast

Advertisements
Track Severe Weather on mobile